Aquadale, North Carolina
Current Conditions -  °F | °C
As of 3:55 AM on Saturday 22 Nov 2014 (Local Time) from KVUJ Reporting Station
Clear Clear  
Wind Chill: 23°   Ceiling: Unl
Heat Index: 23°   Visibility: 10mi
Dew Point: 19°   Wind: 0mph
Humidity: 84%   Direction: NA
Pressure: 30.57"   Gusts: NA
Location:  35.2152°N, 80.1663°W
Report Text: KVUJ 220855Z AUTO 00000KT 10SM CLR M05/M07 A3057 RMK AO2 LTG DSNT W T10491072
Loading
Personal Weather Stations






























Interactive Weather Map New forecast layout! Learn more

10-Day Weather Forecast

Advertisements
Track Severe Weather on mobile